sensor_id;sensor_type;location;lat;lon;timestamp;P1;durP1;ratioP1;P2;durP2;ratioP2
5608;SDS011;2826;51.354;9.588;2023-01-31T00:01:06;14.50;;;2.47;;
5608;SDS011;2826;51.354;9.588;2023-01-31T00:03:34;16.97;;;2.00;;
5608;SDS011;2826;51.354;9.588;2023-01-31T00:06:16;14.83;;;2.40;;
5608;SDS011;2826;51.354;9.588;2023-01-31T00:08:45;8.70;;;1.97;;
5608;SDS011;2826;51.354;9.588;2023-01-31T00:11:14;11.60;;;1.83;;
5608;SDS011;2826;51.354;9.588;2023-01-31T00:13:42;15.73;;;2.50;;
5608;SDS011;2826;51.354;9.588;2023-01-31T00:16:09;10.60;;;2.10;;
5608;SDS011;2826;51.354;9.588;2023-01-31T00:18:37;4.63;;;1.07;;
5608;SDS011;2826;51.354;9.588;2023-01-31T00:21:07;15.23;;;1.90;;
5608;SDS011;2826;51.354;9.588;2023-01-31T00:23:36;6.40;;;1.70;;
5608;SDS011;2826;51.354;9.588;2023-01-31T00:26:06;12.70;;;2.27;;
5608;SDS011;2826;51.354;9.588;2023-01-31T00:28:36;9.80;;;1.90;;
5608;SDS011;2826;51.354;9.588;2023-01-31T00:31:02;8.23;;;1.57;;
5608;SDS011;2826;51.354;9.588;2023-01-31T00:33:29;24.33;;;3.40;;
5608;SDS011;2826;51.354;9.588;2023-01-31T00:35:55;14.37;;;3.43;;
5608;SDS011;2826;51.354;9.588;2023-01-31T00:38:22;16.60;;;3.07;;
5608;SDS011;2826;51.354;9.588;2023-01-31T00:40:51;17.67;;;3.73;;
5608;SDS011;2826;51.354;9.588;2023-01-31T00:43:18;13.60;;;2.30;;
5608;SDS011;2826;51.354;9.588;2023-01-31T00:45:45;18.27;;;3.40;;
5608;SDS011;2826;51.354;9.588;2023-01-31T00:48:13;10.80;;;3.10;;
5608;SDS011;2826;51.354;9.588;2023-01-31T00:50:40;9.83;;;1.93;;
5608;SDS011;2826;51.354;9.588;2023-01-31T00:53:07;22.33;;;3.23;;
5608;SDS011;2826;51.354;9.588;2023-01-31T00:55:34;12.80;;;2.43;;
5608;SDS011;2826;51.354;9.588;2023-01-31T00:58:01;16.70;;;3.07;;
5608;SDS011;2826;51.354;9.588;2023-01-31T01:00:27;22.60;;;3.27;;
5608;SDS011;2826;51.354;9.588;2023-01-31T01:02:56;14.77;;;3.23;;
5608;SDS011;2826;51.354;9.588;2023-01-31T01:05:22;14.37;;;2.03;;
5608;SDS011;2826;51.354;9.588;2023-01-31T01:07:49;16.40;;;2.27;;
5608;SDS011;2826;51.354;9.588;2023-01-31T01:10:16;15.47;;;2.20;;
5608;SDS011;2826;51.354;9.588;2023-01-31T01:12:43;12.03;;;3.07;;
5608;SDS011;2826;51.354;9.588;2023-01-31T01:15:12;12.50;;;2.70;;
5608;SDS011;2826;51.354;9.588;2023-01-31T01:17:39;13.30;;;1.60;;
5608;SDS011;2826;51.354;9.588;2023-01-31T01:20:08;16.30;;;2.83;;
5608;SDS011;2826;51.354;9.588;2023-01-31T01:22:37;23.93;;;2.90;;
5608;SDS011;2826;51.354;9.588;2023-01-31T01:25:04;8.20;;;2.27;;
5608;SDS011;2826;51.354;9.588;2023-01-31T01:27:31;8.80;;;2.20;;
5608;SDS011;2826;51.354;9.588;2023-01-31T01:29:58;17.10;;;2.13;;
5608;SDS011;2826;51.354;9.588;2023-01-31T01:32:26;20.93;;;2.93;;
5608;SDS011;2826;51.354;9.588;2023-01-31T01:34:52;12.23;;;2.67;;
5608;SDS011;2826;51.354;9.588;2023-01-31T01:37:20;8.23;;;2.53;;
5608;SDS011;2826;51.354;9.588;2023-01-31T01:39:47;9.63;;;2.50;;
5608;SDS011;2826;51.354;9.588;2023-01-31T01:42:16;19.23;;;2.73;;
5608;SDS011;2826;51.354;9.588;2023-01-31T01:44:45;18.57;;;2.07;;
5608;SDS011;2826;51.354;9.588;2023-01-31T01:47:20;28.47;;;2.63;;
5608;SDS011;2826;51.354;9.588;2023-01-31T01:49:59;17.43;;;2.40;;
5608;SDS011;2826;51.354;9.588;2023-01-31T01:52:30;4.80;;;1.33;;
5608;SDS011;2826;51.354;9.588;2023-01-31T01:55:03;19.83;;;2.83;;
5608;SDS011;2826;51.354;9.588;2023-01-31T01:57:37;19.27;;;2.90;;
5608;SDS011;2826;51.354;9.588;2023-01-31T02:00:08;26.53;;;3.03;;
5608;SDS011;2826;51.354;9.588;2023-01-31T02:02:41;30.37;;;2.83;;
5608;SDS011;2826;51.354;9.588;2023-01-31T02:05:09;14.23;;;3.03;;
5608;SDS011;2826;51.354;9.588;2023-01-31T02:07:42;12.90;;;2.60;;
5608;SDS011;2826;51.354;9.588;2023-01-31T02:10:10;14.27;;;3.00;;
5608;SDS011;2826;51.354;9.588;2023-01-31T02:12:41;20.47;;;2.77;;
5608;SDS011;2826;51.354;9.588;2023-01-31T02:15:08;19.83;;;3.23;;
5608;SDS011;2826;51.354;9.588;2023-01-31T02:17:35;10.20;;;2.17;;
5608;SDS011;2826;51.354;9.588;2023-01-31T02:20:07;15.60;;;3.50;;
5608;SDS011;2826;51.354;9.588;2023-01-31T02:22:45;5.37;;;2.03;;
5608;SDS011;2826;51.354;9.588;2023-01-31T02:25:39;12.13;;;2.10;;
5608;SDS011;2826;51.354;9.588;2023-01-31T02:28:27;6.10;;;1.73;;
5608;SDS011;2826;51.354;9.588;2023-01-31T02:31:29;15.83;;;3.33;;
5608;SDS011;2826;51.354;9.588;2023-01-31T02:34:15;14.97;;;3.13;;
5608;SDS011;2826;51.354;9.588;2023-01-31T02:36:52;15.13;;;2.00;;
5608;SDS011;2826;51.354;9.588;2023-01-31T02:39:31;15.33;;;1.90;;
5608;SDS011;2826;51.354;9.588;2023-01-31T02:42:06;16.17;;;2.57;;
5608;SDS011;2826;51.354;9.588;2023-01-31T02:44:42;11.53;;;2.73;;
5608;SDS011;2826;51.354;9.588;2023-01-31T02:47:26;11.97;;;2.10;;
5608;SDS011;2826;51.354;9.588;2023-01-31T02:50:08;20.10;;;4.00;;
5608;SDS011;2826;51.354;9.588;2023-01-31T02:52:43;7.03;;;1.83;;
5608;SDS011;2826;51.354;9.588;2023-01-31T02:55:16;13.23;;;3.63;;
5608;SDS011;2826;51.354;9.588;2023-01-31T02:58:05;24.93;;;3.40;;
5608;SDS011;2826;51.354;9.588;2023-01-31T03:00:36;7.83;;;2.47;;
5608;SDS011;2826;51.354;9.588;2023-01-31T03:03:07;12.83;;;2.83;;
5608;SDS011;2826;51.354;9.588;2023-01-31T03:05:40;15.57;;;2.83;;
5608;SDS011;2826;51.354;9.588;2023-01-31T03:08:08;8.10;;;2.60;;
5608;SDS011;2826;51.354;9.588;2023-01-31T03:10:49;15.37;;;2.60;;
5608;SDS011;2826;51.354;9.588;2023-01-31T03:13:38;17.57;;;2.57;;
5608;SDS011;2826;51.354;9.588;2023-01-31T03:16:16;8.23;;;1.80;;
5608;SDS011;2826;51.354;9.588;2023-01-31T03:19:07;14.53;;;2.20;;
5608;SDS011;2826;51.354;9.588;2023-01-31T03:21:44;16.83;;;2.97;;
5608;SDS011;2826;51.354;9.588;2023-01-31T03:24:14;18.20;;;2.73;;
5608;SDS011;2826;51.354;9.588;2023-01-31T03:26:43;15.17;;;3.13;;
5608;SDS011;2826;51.354;9.588;2023-01-31T03:29:12;8.20;;;2.33;;
5608;SDS011;2826;51.354;9.588;2023-01-31T03:31:43;23.87;;;3.40;;
5608;SDS011;2826;51.354;9.588;2023-01-31T03:34:13;11.17;;;2.60;;
5608;SDS011;2826;51.354;9.588;2023-01-31T03:36:45;8.40;;;2.27;;
5608;SDS011;2826;51.354;9.588;2023-01-31T03:39:31;9.10;;;2.10;;
5608;SDS011;2826;51.354;9.588;2023-01-31T03:42:05;18.07;;;2.47;;
5608;SDS011;2826;51.354;9.588;2023-01-31T03:44:35;7.97;;;2.30;;
5608;SDS011;2826;51.354;9.588;2023-01-31T03:47:09;23.27;;;3.03;;
5608;SDS011;2826;51.354;9.588;2023-01-31T03:49:40;9.07;;;2.03;;
5608;SDS011;2826;51.354;9.588;2023-01-31T03:52:11;13.17;;;2.47;;
5608;SDS011;2826;51.354;9.588;2023-01-31T03:54:43;18.23;;;3.17;;
5608;SDS011;2826;51.354;9.588;2023-01-31T03:57:14;11.73;;;2.53;;
5608;SDS011;2826;51.354;9.588;2023-01-31T03:59:46;9.50;;;2.50;;
5608;SDS011;2826;51.354;9.588;2023-01-31T04:02:18;12.60;;;3.20;;
5608;SDS011;2826;51.354;9.588;2023-01-31T04:04:49;17.90;;;2.90;;
5608;SDS011;2826;51.354;9.588;2023-01-31T04:07:21;12.00;;;2.50;;
5608;SDS011;2826;51.354;9.588;2023-01-31T04:09:49;17.43;;;2.70;;
5608;SDS011;2826;51.354;9.588;2023-01-31T04:12:15;5.60;;;2.00;;
5608;SDS011;2826;51.354;9.588;2023-01-31T04:14:42;16.87;;;2.37;;
5608;SDS011;2826;51.354;9.588;2023-01-31T04:17:09;15.43;;;3.40;;
5608;SDS011;2826;51.354;9.588;2023-01-31T04:19:36;24.30;;;3.07;;
5608;SDS011;2826;51.354;9.588;2023-01-31T04:22:02;17.40;;;3.37;;
5608;SDS011;2826;51.354;9.588;2023-01-31T04:24:30;14.27;;;2.20;;
5608;SDS011;2826;51.354;9.588;2023-01-31T04:26:58;17.20;;;3.30;;
5608;SDS011;2826;51.354;9.588;2023-01-31T04:29:25;7.93;;;1.90;;
5608;SDS011;2826;51.354;9.588;2023-01-31T04:31:51;18.50;;;2.70;;
5608;SDS011;2826;51.354;9.588;2023-01-31T04:34:18;14.70;;;2.80;;
5608;SDS011;2826;51.354;9.588;2023-01-31T04:36:44;5.70;;;2.00;;
5608;SDS011;2826;51.354;9.588;2023-01-31T04:39:11;14.43;;;3.00;;
5608;SDS011;2826;51.354;9.588;2023-01-31T04:41:40;12.53;;;2.63;;
5608;SDS011;2826;51.354;9.588;2023-01-31T04:44:07;12.97;;;2.20;;
5608;SDS011;2826;51.354;9.588;2023-01-31T04:46:34;6.80;;;2.90;;
5608;SDS011;2826;51.354;9.588;2023-01-31T04:49:06;10.33;;;2.57;;
5608;SDS011;2826;51.354;9.588;2023-01-31T04:51:32;14.13;;;2.87;;
5608;SDS011;2826;51.354;9.588;2023-01-31T04:53:59;14.70;;;3.60;;
5608;SDS011;2826;51.354;9.588;2023-01-31T04:56:26;39.77;;;3.13;;
5608;SDS011;2826;51.354;9.588;2023-01-31T04:58:54;18.30;;;3.07;;
5608;SDS011;2826;51.354;9.588;2023-01-31T05:01:21;21.83;;;4.40;;
5608;SDS011;2826;51.354;9.588;2023-01-31T05:03:47;15.40;;;2.90;;
5608;SDS011;2826;51.354;9.588;2023-01-31T05:06:14;18.63;;;4.00;;
5608;SDS011;2826;51.354;9.588;2023-01-31T05:08:41;22.17;;;3.90;;
5608;SDS011;2826;51.354;9.588;2023-01-31T05:11:07;8.60;;;3.20;;
5608;SDS011;2826;51.354;9.588;2023-01-31T05:13:35;9.73;;;1.93;;
5608;SDS011;2826;51.354;9.588;2023-01-31T05:16:05;14.93;;;2.00;;
5608;SDS011;2826;51.354;9.588;2023-01-31T05:18:32;13.30;;;2.20;;
5608;SDS011;2826;51.354;9.588;2023-01-31T05:23:27;21.33;;;4.13;;
5608;SDS011;2826;51.354;9.588;2023-01-31T05:25:54;11.10;;;2.20;;
5608;SDS011;2826;51.354;9.588;2023-01-31T05:28:21;15.23;;;3.20;;
5608;SDS011;2826;51.354;9.588;2023-01-31T05:30:49;17.33;;;3.20;;
5608;SDS011;2826;51.354;9.588;2023-01-31T05:33:17;21.47;;;3.03;;
5608;SDS011;2826;51.354;9.588;2023-01-31T05:35:45;15.83;;;4.23;;
5608;SDS011;2826;51.354;9.588;2023-01-31T05:38:12;13.40;;;2.90;;
5608;SDS011;2826;51.354;9.588;2023-01-31T05:40:38;13.23;;;3.20;;
5608;SDS011;2826;51.354;9.588;2023-01-31T05:43:05;5.90;;;2.53;;
5608;SDS011;2826;51.354;9.588;2023-01-31T05:45:32;11.27;;;2.70;;
5608;SDS011;2826;51.354;9.588;2023-01-31T05:47:58;19.57;;;3.13;;
5608;SDS011;2826;51.354;9.588;2023-01-31T05:50:26;12.93;;;2.37;;
5608;SDS011;2826;51.354;9.588;2023-01-31T05:52:54;12.87;;;2.10;;
5608;SDS011;2826;51.354;9.588;2023-01-31T05:55:24;6.43;;;1.70;;
5608;SDS011;2826;51.354;9.588;2023-01-31T05:57:51;13.37;;;2.30;;
5608;SDS011;2826;51.354;9.588;2023-01-31T06:00:19;13.20;;;2.50;;
5608;SDS011;2826;51.354;9.588;2023-01-31T06:02:46;8.10;;;2.03;;
5608;SDS011;2826;51.354;9.588;2023-01-31T06:05:13;13.93;;;2.43;;
5608;SDS011;2826;51.354;9.588;2023-01-31T06:07:41;18.90;;;2.93;;
5608;SDS011;2826;51.354;9.588;2023-01-31T06:10:08;11.13;;;2.60;;
5608;SDS011;2826;51.354;9.588;2023-01-31T06:12:36;14.27;;;2.50;;
5608;SDS011;2826;51.354;9.588;2023-01-31T06:15:03;9.57;;;2.40;;
5608;SDS011;2826;51.354;9.588;2023-01-31T06:17:30;9.10;;;2.83;;
5608;SDS011;2826;51.354;9.588;2023-01-31T06:19:57;6.60;;;2.43;;
5608;SDS011;2826;51.354;9.588;2023-01-31T06:22:24;17.80;;;3.00;;
5608;SDS011;2826;51.354;9.588;2023-01-31T06:24:52;9.07;;;2.63;;
5608;SDS011;2826;51.354;9.588;2023-01-31T06:27:18;8.13;;;2.50;;
5608;SDS011;2826;51.354;9.588;2023-01-31T06:29:45;16.90;;;2.33;;
5608;SDS011;2826;51.354;9.588;2023-01-31T06:32:11;13.07;;;2.60;;
5608;SDS011;2826;51.354;9.588;2023-01-31T06:34:38;11.67;;;3.00;;
5608;SDS011;2826;51.354;9.588;2023-01-31T06:37:07;10.00;;;2.47;;
5608;SDS011;2826;51.354;9.588;2023-01-31T06:39:34;8.20;;;2.73;;
5608;SDS011;2826;51.354;9.588;2023-01-31T06:42:02;15.40;;;2.70;;
5608;SDS011;2826;51.354;9.588;2023-01-31T06:44:29;6.73;;;2.80;;
5608;SDS011;2826;51.354;9.588;2023-01-31T06:46:57;18.33;;;2.80;;
5608;SDS011;2826;51.354;9.588;2023-01-31T06:49:24;6.43;;;3.00;;
5608;SDS011;2826;51.354;9.588;2023-01-31T06:51:51;5.57;;;2.53;;
5608;SDS011;2826;51.354;9.588;2023-01-31T06:54:17;20.83;;;3.37;;
5608;SDS011;2826;51.354;9.588;2023-01-31T06:56:44;15.70;;;3.33;;
5608;SDS011;2826;51.354;9.588;2023-01-31T06:59:12;15.93;;;3.37;;
5608;SDS011;2826;51.354;9.588;2023-01-31T07:01:38;17.37;;;4.40;;
5608;SDS011;2826;51.354;9.588;2023-01-31T07:04:05;8.83;;;3.73;;
5608;SDS011;2826;51.354;9.588;2023-01-31T07:06:32;15.33;;;4.90;;
5608;SDS011;2826;51.354;9.588;2023-01-31T07:08:58;18.57;;;3.73;;
5608;SDS011;2826;51.354;9.588;2023-01-31T07:11:25;13.27;;;3.30;;
5608;SDS011;2826;51.354;9.588;2023-01-31T07:13:51;11.43;;;3.30;;
5608;SDS011;2826;51.354;9.588;2023-01-31T07:16:19;16.20;;;4.30;;
5608;SDS011;2826;51.354;9.588;2023-01-31T07:18:47;11.20;;;3.47;;
5608;SDS011;2826;51.354;9.588;2023-01-31T07:21:13;9.30;;;3.03;;
5608;SDS011;2826;51.354;9.588;2023-01-31T07:23:40;22.47;;;3.87;;
5608;SDS011;2826;51.354;9.588;2023-01-31T07:26:07;7.47;;;3.50;;
5608;SDS011;2826;51.354;9.588;2023-01-31T07:28:33;15.13;;;3.27;;
5608;SDS011;2826;51.354;9.588;2023-01-31T07:31:03;7.70;;;3.40;;
5608;SDS011;2826;51.354;9.588;2023-01-31T07:33:32;14.10;;;3.47;;
5608;SDS011;2826;51.354;9.588;2023-01-31T07:36:00;14.10;;;3.60;;
5608;SDS011;2826;51.354;9.588;2023-01-31T07:38:28;12.70;;;3.17;;
5608;SDS011;2826;51.354;9.588;2023-01-31T07:40:57;16.87;;;4.60;;
5608;SDS011;2826;51.354;9.588;2023-01-31T07:43:24;5.77;;;2.97;;
5608;SDS011;2826;51.354;9.588;2023-01-31T07:45:50;14.80;;;3.07;;
5608;SDS011;2826;51.354;9.588;2023-01-31T07:48:17;8.00;;;3.53;;
5608;SDS011;2826;51.354;9.588;2023-01-31T07:50:50;15.40;;;4.30;;
5608;SDS011;2826;51.354;9.588;2023-01-31T07:53:17;11.40;;;2.90;;
5608;SDS011;2826;51.354;9.588;2023-01-31T07:55:43;16.53;;;3.57;;
5608;SDS011;2826;51.354;9.588;2023-01-31T07:58:11;12.97;;;3.67;;
5608;SDS011;2826;51.354;9.588;2023-01-31T08:00:39;17.90;;;3.50;;
5608;SDS011;2826;51.354;9.588;2023-01-31T08:03:29;20.60;;;4.57;;
5608;SDS011;2826;51.354;9.588;2023-01-31T08:06:03;21.63;;;4.20;;
5608;SDS011;2826;51.354;9.588;2023-01-31T08:08:34;8.83;;;3.73;;
5608;SDS011;2826;51.354;9.588;2023-01-31T08:11:00;21.13;;;4.90;;
5608;SDS011;2826;51.354;9.588;2023-01-31T08:13:29;17.67;;;6.10;;
5608;SDS011;2826;51.354;9.588;2023-01-31T08:15:55;12.97;;;4.03;;
5608;SDS011;2826;51.354;9.588;2023-01-31T08:18:22;18.03;;;4.37;;
5608;SDS011;2826;51.354;9.588;2023-01-31T08:20:49;19.87;;;4.30;;
5608;SDS011;2826;51.354;9.588;2023-01-31T08:23:17;21.33;;;5.17;;
5608;SDS011;2826;51.354;9.588;2023-01-31T08:25:44;15.03;;;3.97;;
5608;SDS011;2826;51.354;9.588;2023-01-31T08:28:10;12.87;;;4.37;;
5608;SDS011;2826;51.354;9.588;2023-01-31T08:30:38;27.83;;;4.20;;
5608;SDS011;2826;51.354;9.588;2023-01-31T08:33:06;15.47;;;4.20;;
5608;SDS011;2826;51.354;9.588;2023-01-31T08:35:33;14.23;;;4.27;;
5608;SDS011;2826;51.354;9.588;2023-01-31T08:37:59;16.83;;;5.23;;
5608;SDS011;2826;51.354;9.588;2023-01-31T08:40:27;15.40;;;4.60;;
5608;SDS011;2826;51.354;9.588;2023-01-31T08:42:54;28.10;;;5.03;;
5608;SDS011;2826;51.354;9.588;2023-01-31T08:45:21;16.93;;;4.60;;
5608;SDS011;2826;51.354;9.588;2023-01-31T08:47:51;23.33;;;4.37;;
5608;SDS011;2826;51.354;9.588;2023-01-31T08:50:19;9.27;;;3.67;;
5608;SDS011;2826;51.354;9.588;2023-01-31T08:52:45;21.93;;;5.73;;
5608;SDS011;2826;51.354;9.588;2023-01-31T08:55:12;33.97;;;5.70;;
5608;SDS011;2826;51.354;9.588;2023-01-31T08:57:42;17.50;;;4.53;;
5608;SDS011;2826;51.354;9.588;2023-01-31T09:00:10;9.47;;;3.07;;
5608;SDS011;2826;51.354;9.588;2023-01-31T09:02:37;18.90;;;4.37;;
5608;SDS011;2826;51.354;9.588;2023-01-31T09:05:04;17.53;;;2.97;;
5608;SDS011;2826;51.354;9.588;2023-01-31T09:07:32;9.20;;;3.50;;
5608;SDS011;2826;51.354;9.588;2023-01-31T09:09:59;19.30;;;5.30;;
5608;SDS011;2826;51.354;9.588;2023-01-31T09:12:25;16.93;;;4.80;;
5608;SDS011;2826;51.354;9.588;2023-01-31T09:14:53;15.87;;;4.70;;
5608;SDS011;2826;51.354;9.588;2023-01-31T09:17:20;16.37;;;4.10;;
5608;SDS011;2826;51.354;9.588;2023-01-31T09:19:46;13.57;;;3.90;;
5608;SDS011;2826;51.354;9.588;2023-01-31T09:22:13;22.63;;;4.13;;
5608;SDS011;2826;51.354;9.588;2023-01-31T09:24:40;18.93;;;4.70;;
5608;SDS011;2826;51.354;9.588;2023-01-31T09:27:06;25.37;;;5.10;;
5608;SDS011;2826;51.354;9.588;2023-01-31T09:29:33;17.33;;;5.33;;
5608;SDS011;2826;51.354;9.588;2023-01-31T09:32:01;28.50;;;5.63;;
5608;SDS011;2826;51.354;9.588;2023-01-31T09:34:27;12.27;;;4.20;;
5608;SDS011;2826;51.354;9.588;2023-01-31T09:36:54;15.93;;;3.80;;
5608;SDS011;2826;51.354;9.588;2023-01-31T09:39:21;13.07;;;5.20;;
5608;SDS011;2826;51.354;9.588;2023-01-31T09:41:49;12.80;;;4.23;;
5608;SDS011;2826;51.354;9.588;2023-01-31T09:44:20;14.23;;;4.50;;
5608;SDS011;2826;51.354;9.588;2023-01-31T09:46:52;21.47;;;4.70;;
5608;SDS011;2826;51.354;9.588;2023-01-31T09:49:24;24.17;;;4.47;;
5608;SDS011;2826;51.354;9.588;2023-01-31T09:51:56;20.20;;;4.57;;
5608;SDS011;2826;51.354;9.588;2023-01-31T09:54:27;21.40;;;5.60;;
5608;SDS011;2826;51.354;9.588;2023-01-31T09:56:58;17.60;;;4.60;;
5608;SDS011;2826;51.354;9.588;2023-01-31T09:59:35;16.50;;;5.07;;
5608;SDS011;2826;51.354;9.588;2023-01-31T10:02:14;21.83;;;4.93;;
5608;SDS011;2826;51.354;9.588;2023-01-31T10:05:03;15.67;;;4.87;;
5608;SDS011;2826;51.354;9.588;2023-01-31T10:07:40;12.03;;;4.60;;
5608;SDS011;2826;51.354;9.588;2023-01-31T10:10:14;16.70;;;4.80;;
5608;SDS011;2826;51.354;9.588;2023-01-31T10:12:53;15.53;;;4.30;;
5608;SDS011;2826;51.354;9.588;2023-01-31T10:15:26;23.53;;;4.23;;
5608;SDS011;2826;51.354;9.588;2023-01-31T10:17:57;25.63;;;5.07;;
5608;SDS011;2826;51.354;9.588;2023-01-31T10:20:31;18.90;;;4.00;;
5608;SDS011;2826;51.354;9.588;2023-01-31T10:23:02;12.87;;;5.20;;
5608;SDS011;2826;51.354;9.588;2023-01-31T10:25:33;16.97;;;4.80;;
5608;SDS011;2826;51.354;9.588;2023-01-31T10:28:04;18.17;;;4.87;;
5608;SDS011;2826;51.354;9.588;2023-01-31T10:30:39;30.17;;;6.37;;
5608;SDS011;2826;51.354;9.588;2023-01-31T10:33:12;13.43;;;5.03;;
5608;SDS011;2826;51.354;9.588;2023-01-31T10:35:48;13.17;;;4.57;;
5608;SDS011;2826;51.354;9.588;2023-01-31T10:38:18;21.40;;;5.50;;
5608;SDS011;2826;51.354;9.588;2023-01-31T10:40:50;15.70;;;4.30;;
5608;SDS011;2826;51.354;9.588;2023-01-31T10:43:21;19.93;;;4.50;;
5608;SDS011;2826;51.354;9.588;2023-01-31T10:45:56;15.77;;;5.33;;
5608;SDS011;2826;51.354;9.588;2023-01-31T10:48:26;21.50;;;5.73;;
5608;SDS011;2826;51.354;9.588;2023-01-31T10:50:59;20.57;;;4.80;;
5608;SDS011;2826;51.354;9.588;2023-01-31T10:53:34;17.70;;;4.77;;
5608;SDS011;2826;51.354;9.588;2023-01-31T10:56:15;11.43;;;4.50;;
5608;SDS011;2826;51.354;9.588;2023-01-31T10:58:49;13.07;;;4.33;;
5608;SDS011;2826;51.354;9.588;2023-01-31T11:01:17;13.60;;;4.40;;
5608;SDS011;2826;51.354;9.588;2023-01-31T11:03:45;36.00;;;6.10;;
5608;SDS011;2826;51.354;9.588;2023-01-31T11:06:16;21.07;;;4.80;;
5608;SDS011;2826;51.354;9.588;2023-01-31T11:08:45;13.37;;;5.10;;
5608;SDS011;2826;51.354;9.588;2023-01-31T11:11:14;20.27;;;6.43;;
5608;SDS011;2826;51.354;9.588;2023-01-31T11:13:53;30.13;;;5.97;;
5608;SDS011;2826;51.354;9.588;2023-01-31T11:16:21;22.17;;;5.93;;
5608;SDS011;2826;51.354;9.588;2023-01-31T11:18:49;26.63;;;6.10;;
5608;SDS011;2826;51.354;9.588;2023-01-31T11:21:19;16.27;;;4.73;;
5608;SDS011;2826;51.354;9.588;2023-01-31T11:23:49;25.20;;;6.87;;
5608;SDS011;2826;51.354;9.588;2023-01-31T11:26:23;13.73;;;5.90;;
5608;SDS011;2826;51.354;9.588;2023-01-31T11:28:52;23.27;;;5.10;;
5608;SDS011;2826;51.354;9.588;2023-01-31T11:31:21;19.37;;;4.87;;
5608;SDS011;2826;51.354;9.588;2023-01-31T11:33:55;26.73;;;6.67;;
5608;SDS011;2826;51.354;9.588;2023-01-31T11:36:24;21.70;;;7.20;;
5608;SDS011;2826;51.354;9.588;2023-01-31T11:38:51;22.90;;;5.90;;
5608;SDS011;2826;51.354;9.588;2023-01-31T11:41:24;15.73;;;5.47;;
5608;SDS011;2826;51.354;9.588;2023-01-31T11:44:05;24.17;;;6.47;;
5608;SDS011;2826;51.354;9.588;2023-01-31T11:46:36;25.47;;;6.70;;
5608;SDS011;2826;51.354;9.588;2023-01-31T11:49:09;20.73;;;6.67;;
5608;SDS011;2826;51.354;9.588;2023-01-31T11:51:39;16.13;;;4.30;;
5608;SDS011;2826;51.354;9.588;2023-01-31T11:54:06;22.53;;;6.83;;
5608;SDS011;2826;51.354;9.588;2023-01-31T11:56:33;26.17;;;7.70;;
5608;SDS011;2826;51.354;9.588;2023-01-31T11:59:03;24.90;;;7.47;;
5608;SDS011;2826;51.354;9.588;2023-01-31T12:01:32;12.20;;;4.67;;
5608;SDS011;2826;51.354;9.588;2023-01-31T12:04:01;18.10;;;6.30;;
5608;SDS011;2826;51.354;9.588;2023-01-31T12:06:30;23.83;;;6.80;;
5608;SDS011;2826;51.354;9.588;2023-01-31T12:09:00;20.00;;;7.40;;
5608;SDS011;2826;51.354;9.588;2023-01-31T12:11:29;7.40;;;4.90;;
5608;SDS011;2826;51.354;9.588;2023-01-31T12:14:01;24.57;;;6.47;;
5608;SDS011;2826;51.354;9.588;2023-01-31T12:16:37;12.70;;;5.17;;
5608;SDS011;2826;51.354;9.588;2023-01-31T12:19:06;15.97;;;6.00;;
5608;SDS011;2826;51.354;9.588;2023-01-31T12:21:44;16.60;;;5.67;;
5608;SDS011;2826;51.354;9.588;2023-01-31T12:24:21;23.60;;;5.60;;
5608;SDS011;2826;51.354;9.588;2023-01-31T12:27:02;17.30;;;5.80;;
5608;SDS011;2826;51.354;9.588;2023-01-31T12:29:44;11.53;;;5.13;;
5608;SDS011;2826;51.354;9.588;2023-01-31T12:32:42;12.70;;;5.53;;
5608;SDS011;2826;51.354;9.588;2023-01-31T12:35:22;17.97;;;6.73;;
5608;SDS011;2826;51.354;9.588;2023-01-31T12:37:59;16.53;;;5.60;;
5608;SDS011;2826;51.354;9.588;2023-01-31T12:40:38;20.00;;;8.17;;
5608;SDS011;2826;51.354;9.588;2023-01-31T12:43:11;17.93;;;5.80;;
5608;SDS011;2826;51.354;9.588;2023-01-31T12:45:54;24.67;;;6.20;;
5608;SDS011;2826;51.354;9.588;2023-01-31T12:51:18;24.93;;;6.43;;
5608;SDS011;2826;51.354;9.588;2023-01-31T12:53:58;11.37;;;3.83;;
5608;SDS011;2826;51.354;9.588;2023-01-31T12:56:39;30.37;;;4.90;;
5608;SDS011;2826;51.354;9.588;2023-01-31T12:59:17;15.53;;;5.53;;
5608;SDS011;2826;51.354;9.588;2023-01-31T13:01:53;19.80;;;6.20;;
5608;SDS011;2826;51.354;9.588;2023-01-31T13:04:30;18.13;;;4.67;;
5608;SDS011;2826;51.354;9.588;2023-01-31T13:07:02;16.83;;;4.97;;
5608;SDS011;2826;51.354;9.588;2023-01-31T13:09:31;17.40;;;4.70;;
5608;SDS011;2826;51.354;9.588;2023-01-31T13:12:02;31.40;;;7.67;;
5608;SDS011;2826;51.354;9.588;2023-01-31T13:14:35;16.20;;;4.90;;
5608;SDS011;2826;51.354;9.588;2023-01-31T13:17:05;16.50;;;6.17;;
5608;SDS011;2826;51.354;9.588;2023-01-31T13:19:38;23.90;;;6.90;;
5608;SDS011;2826;51.354;9.588;2023-01-31T13:22:10;15.77;;;7.00;;
5608;SDS011;2826;51.354;9.588;2023-01-31T13:24:40;41.53;;;9.17;;
5608;SDS011;2826;51.354;9.588;2023-01-31T13:27:15;32.00;;;8.30;;
5608;SDS011;2826;51.354;9.588;2023-01-31T13:29:48;16.40;;;6.60;;
5608;SDS011;2826;51.354;9.588;2023-01-31T13:32:23;34.07;;;6.80;;
5608;SDS011;2826;51.354;9.588;2023-01-31T13:34:54;28.30;;;7.10;;
5608;SDS011;2826;51.354;9.588;2023-01-31T13:37:25;18.03;;;5.20;;
5608;SDS011;2826;51.354;9.588;2023-01-31T13:39:55;32.47;;;9.10;;
5608;SDS011;2826;51.354;9.588;2023-01-31T13:42:26;19.20;;;7.10;;
5608;SDS011;2826;51.354;9.588;2023-01-31T13:44:54;7.00;;;4.47;;
5608;SDS011;2826;51.354;9.588;2023-01-31T13:47:26;22.53;;;6.40;;
5608;SDS011;2826;51.354;9.588;2023-01-31T13:49:56;22.63;;;6.90;;
5608;SDS011;2826;51.354;9.588;2023-01-31T13:52:28;35.17;;;7.50;;
5608;SDS011;2826;51.354;9.588;2023-01-31T13:54:59;19.43;;;4.70;;
5608;SDS011;2826;51.354;9.588;2023-01-31T13:57:31;17.23;;;5.37;;
5608;SDS011;2826;51.354;9.588;2023-01-31T14:00:01;28.73;;;5.93;;
5608;SDS011;2826;51.354;9.588;2023-01-31T14:02:59;27.70;;;6.13;;
5608;SDS011;2826;51.354;9.588;2023-01-31T14:05:49;19.17;;;6.37;;
5608;SDS011;2826;51.354;9.588;2023-01-31T14:08:28;19.73;;;7.00;;
5608;SDS011;2826;51.354;9.588;2023-01-31T14:11:02;10.70;;;4.63;;
5608;SDS011;2826;51.354;9.588;2023-01-31T14:13:50;20.07;;;7.00;;
5608;SDS011;2826;51.354;9.588;2023-01-31T14:16:38;27.27;;;9.03;;
5608;SDS011;2826;51.354;9.588;2023-01-31T14:19:30;19.63;;;8.17;;
5608;SDS011;2826;51.354;9.588;2023-01-31T14:22:13;21.87;;;7.00;;
5608;SDS011;2826;51.354;9.588;2023-01-31T14:27:32;15.30;;;6.07;;
5608;SDS011;2826;51.354;9.588;2023-01-31T14:30:10;20.13;;;5.67;;
5608;SDS011;2826;51.354;9.588;2023-01-31T14:33:03;13.23;;;5.77;;
5608;SDS011;2826;51.354;9.588;2023-01-31T14:35:38;14.77;;;5.73;;
5608;SDS011;2826;51.354;9.588;2023-01-31T14:38:16;25.03;;;6.83;;
5608;SDS011;2826;51.354;9.588;2023-01-31T14:40:54;18.40;;;6.30;;
5608;SDS011;2826;51.354;9.588;2023-01-31T14:43:32;17.07;;;6.33;;
5608;SDS011;2826;51.354;9.588;2023-01-31T14:49:11;27.33;;;9.27;;
5608;SDS011;2826;51.354;9.588;2023-01-31T14:55:00;27.23;;;8.97;;
5608;SDS011;2826;51.354;9.588;2023-01-31T14:57:44;15.63;;;6.60;;
5608;SDS011;2826;51.354;9.588;2023-01-31T15:00:17;28.00;;;7.60;;
5608;SDS011;2826;51.354;9.588;2023-01-31T15:02:49;13.03;;;7.20;;
5608;SDS011;2826;51.354;9.588;2023-01-31T15:05:22;14.93;;;7.57;;
5608;SDS011;2826;51.354;9.588;2023-01-31T15:08:08;17.90;;;10.07;;
5608;SDS011;2826;51.354;9.588;2023-01-31T15:11:10;27.40;;;10.63;;
5608;SDS011;2826;51.354;9.588;2023-01-31T15:13:40;14.20;;;7.17;;
5608;SDS011;2826;51.354;9.588;2023-01-31T15:16:14;21.20;;;8.23;;
5608;SDS011;2826;51.354;9.588;2023-01-31T15:18:45;18.90;;;7.83;;
5608;SDS011;2826;51.354;9.588;2023-01-31T15:21:18;14.60;;;7.47;;
5608;SDS011;2826;51.354;9.588;2023-01-31T15:23:50;19.97;;;7.63;;
5608;SDS011;2826;51.354;9.588;2023-01-31T15:26:18;16.70;;;5.50;;
5608;SDS011;2826;51.354;9.588;2023-01-31T15:28:47;19.83;;;8.10;;
5608;SDS011;2826;51.354;9.588;2023-01-31T15:31:16;18.77;;;8.00;;
5608;SDS011;2826;51.354;9.588;2023-01-31T15:33:48;19.63;;;7.30;;
5608;SDS011;2826;51.354;9.588;2023-01-31T15:36:19;20.37;;;6.63;;
5608;SDS011;2826;51.354;9.588;2023-01-31T15:38:53;17.27;;;8.10;;
5608;SDS011;2826;51.354;9.588;2023-01-31T15:41:22;21.77;;;8.07;;